Leagueville, Texas
Current Conditions -  °F | °C
As of 2:55 PM on Tuesday 21 Oct 2014 (Local Time) from KF44 Reporting Station
Clear Clear  
Wind Chill: 79°   Ceiling: Unl
Heat Index: 79°   Visibility: 10mi
Dew Point: 55°   Wind: 7mph
Humidity: 44%   Direction: 100°E
Pressure: 30.03"   Gusts: NA
Location:  32.327°N, 95.8011°W
Report Text: KF44 211955Z AUTO 10006KT 10SM CLR 26/13 A3003 RMK AO2
Loading
Personal Weather Stations






























Interactive Weather Map
Tropical Storm Tracking
New forecast layout! Learn more

10-Day Weather Forecast

Advertisements
Track Severe Weather on mobile